| time (UTC) | temp F | wind direction | speed knots | gust knots | rain 1hr in | rain 24hr in | rain mn in | humidity % | barometer mb |
| 20260505064038 | 57 | 311 | 1.7 | 4.3 | 0.15 | 0.15 | 0.15 | 88 | 1007.2 |
| 20260505063538 | 57 | 0 | 1.7 | 4.3 | 0.14 | 0.14 | 0.14 | 88 | 1007.0 |
| 20260505063044 | 57 | 19 | 1.7 | 5.2 | 0.13 | 0.13 | 0.13 | 87 | 1007.0 |
| 20260505062539 | 57 | 339 | 1.7 | 10.4 | 0.13 | 0.13 | 0.13 | 86 | 1006.8 |
| 20260505062037 | 57 | 339 | 2.6 | 10.4 | 0.12 | 0.12 | 0.12 | 85 | 1006.8 |
| 20260505061613 | 58 | 352 | 6.1 | 11.3 | 0.11 | 0.11 | 0.11 | 84 | 1006.8 |
| 20260505061038 | 59 | 5 | 6.1 | 12.2 | 0.09 | 0.09 | 0.09 | 81 | 1007.3 |
| 20260505060538 | 60 | 337 | 6.1 | 18.2 | 0.01 | 0.01 | 0.01 | 78 | 1007.4 |
| 20260505060054 | 61 | 338 | 10.4 | 18.2 | 0.01 | 0.01 | 0.01 | 74 | 1006.9 |
| 20260505055538 | 63 | 269 | 8.7 | 24.3 | 0.00 | 0.00 | 0.00 | 69 | 1006.9 |
| 20260505055041 | 67 | 26 | 10.4 | 26.1 | 0.00 | 0.00 | 0.00 | 63 | 1006.8 |
| 20260505054554 | 69 | 34 | 13.0 | 26.1 | 0.00 | 0.00 | 0.00 | 59 | 1006.7 |
| 20260505054037 | 70 | 347 | 7.0 | 16.5 | 0.00 | 0.00 | 0.00 | 62 | 1006.4 |
| 20260505053537 | 70 | 233 | 3.5 | 13.0 | 0.00 | 0.00 | 0.00 | 62 | 1004.8 |
| 20260505053047 | 70 | 189 | 4.3 | 13.9 | 0.00 | 0.00 | 0.00 | 62 | 1004.4 |
| 20260505052537 | 70 | 241 | 3.5 | 13.9 | 0.00 | 0.00 | 0.00 | 62 | 1004.4 |
| 20260505052039 | 70 | 232 | 1.7 | 11.3 | 0.00 | 0.00 | 0.00 | 62 | 1004.2 |
| 20260505051547 | 70 | 218 | 2.6 | 9.6 | 0.00 | 0.00 | 0.00 | 62 | 1004.0 |
| 20260505051037 | 70 | 191 | 3.5 | 9.6 | 0.00 | 0.00 | 0.00 | 62 | 1004.1 |
| 20260505050540 | 69 | 223 | 3.5 | 10.4 | 0.00 | 0.00 | 0.00 | 63 | 1004.0 |
| 20260505041555 | 69 | 211 | 1.7 | 9.6 | 0.00 | 0.00 | 0.00 | 65 | 1003.3 |
| 20260505041041 | 69 | 226 | 2.6 | 8.7 | 0.00 | 0.00 | 0.00 | 65 | 1003.4 |
| 20260505040539 | 69 | 102 | 1.7 | 8.7 | 0.00 | 0.00 | 0.00 | 65 | 1003.2 |
| 20260505035541 | 69 | 198 | 1.7 | 4.3 | 0.00 | 0.00 | 0.00 | 64 | 1003.2 |
| 20260505035040 | 69 | 288 | 0.9 | 3.5 | 0.00 | 0.00 | 0.00 | 64 | 1003.3 |
| 20260505034550 | 69 | 0 | 0.9 | 5.2 | 0.00 | 0.00 | 0.00 | 63 | 1003.4 |
| 20260505034038 | 70 | 132 | 0.9 | 7.0 | 0.00 | 0.00 | 0.00 | 63 | 1003.5 |
| 20260505033539 | 70 | 167 | 1.7 | 7.0 | 0.00 | 0.00 | 0.00 | 63 | 1003.6 |
| 20260505033100 | 70 | 211 | 1.7 | 6.1 | 0.00 | 0.00 | 0.00 | 63 | 1003.8 |
| 20260505032538 | 70 | 192 | 0.9 | 6.1 | 0.00 | 0.00 | 0.00 | 63 | 1003.7 |
| 20260505032038 | 70 | 175 | 0.9 | 6.1 | 0.00 | 0.00 | 0.00 | 63 | 1003.9 |
| 20260505031552 | 70 | 215 | 1.7 | 5.2 | 0.00 | 0.00 | 0.00 | 63 | 1003.9 |
| 20260505031038 | 70 | 200 | 1.7 | 5.2 | 0.00 | 0.00 | 0.00 | 62 | 1003.8 |
| 20260505030539 | 70 | 219 | 1.7 | 5.2 | 0.00 | 0.00 | 0.00 | 62 | 1003.7 |
| 20260505030051 | 70 | 201 | 1.7 | 7.0 | 0.00 | 0.00 | 0.00 | 62 | 1003.7 |
| 20260505025537 | 71 | 190 | 1.7 | 7.0 | 0.00 | 0.00 | 0.00 | 62 | 1003.6 |
| 20260505025038 | 71 | 212 | 1.7 | 7.0 | 0.00 | 0.00 | 0.00 | 62 | 1003.4 |
| 20260505024552 | 71 | 217 | 1.7 | 7.0 | 0.00 | 0.00 | 0.00 | 62 | 1003.4 |
| 20260505024038 | 71 | 221 | 1.7 | 5.2 | 0.00 | 0.00 | 0.00 | 62 | 1003.4 |
| 20260505023540 | 71 | 187 | 1.7 | 5.2 | 0.00 | 0.00 | 0.00 | 62 | 1003.3 |
| 20260505023047 | 71 | 189 | 0.9 | 4.3 | 0.00 | 0.00 | 0.00 | 62 | 1003.4 |
| 20260505022538 | 72 | 175 | 0.9 | 4.3 | 0.00 | 0.00 | 0.00 | 61 | 1003.4 |
| 20260505022037 | 72 | 178 | 1.7 | 4.3 | 0.00 | 0.00 | 0.00 | 61 | 1003.4 |
| 20260505021545 | 72 | 223 | 0.9 | 3.5 | 0.00 | 0.00 | 0.00 | 61 | 1003.3 |
| 20260505021037 | 72 | 212 | 0.9 | 2.6 | 0.00 | 0.00 | 0.00 | 61 | 1003.2 |
| 20260505020537 | 72 | 0 | 0.0 | 3.5 | 0.00 | 0.00 | 0.00 | 61 | 1003.1 |
| 20260505020044 | 72 | 0 | 0.9 | 6.1 | 0.00 | 0.00 | 0.00 | 60 | 1003.0 |
| 20260505015538 | 72 | 202 | 1.7 | 6.1 | 0.00 | 0.00 | 0.00 | 60 | 1003.0 |
| 20260505015037 | 73 | 196 | 1.7 | 4.3 | 0.00 | 0.00 | 0.00 | 60 | 1002.8 |
| 20260505014549 | 73 | 215 | 0.9 | 4.3 | 0.00 | 0.00 | 0.00 | 59 | 1002.7 |
| 20260505014038 | 73 | 207 | 0.9 | 4.3 | 0.00 | 0.00 | 0.00 | 59 | 1002.6 |
| 20260505013538 | 73 | 195 | 0.9 | 6.1 | 0.00 | 0.00 | 0.00 | 59 | 1002.5 |
| 20260505013047 | 73 | 200 | 0.9 | 6.1 | 0.00 | 0.00 | 0.00 | 59 | 1002.5 |
| 20260505012539 | 73 | 171 | 1.7 | 6.1 | 0.00 | 0.00 | 0.00 | 58 | 1002.5 |
| 20260505012041 | 74 | 216 | 1.7 | 6.1 | 0.00 | 0.00 | 0.00 | 58 | 1002.5 |
| 20260505011551 | 74 | 0 | 1.7 | 5.2 | 0.00 | 0.00 | 0.00 | 58 | 1002.5 |
| 20260505011038 | 74 | 0 | 0.9 | 4.3 | 0.00 | 0.00 | 0.00 | 57 | 1002.5 |
| 20260505010538 | 74 | 146 | 0.9 | 6.1 | 0.00 | 0.00 | 0.00 | 57 | 1002.5 |
| 20260505010057 | 75 | 188 | 0.9 | 6.1 | 0.00 | 0.00 | 0.00 | 57 | 1002.3 |
| 20260505005538 | 75 | 206 | 1.7 | 6.1 | 0.00 | 0.00 | 0.00 | 56 | 1002.3 |
| 20260505005038 | 75 | 219 | 1.7 | 7.0 | 0.00 | 0.00 | 0.00 | 55 | 1002.3 |
| 20260505004549 | 75 | 202 | 1.7 | 7.0 | 0.00 | 0.00 | 0.00 | 55 | 1002.2 |
| 20260505004037 | 76 | 180 | 0.9 | 6.1 | 0.00 | 0.00 | 0.00 | 55 | 1002.3 |
| 20260505003541 | 76 | 202 | 1.7 | 6.1 | 0.00 | 0.00 | 0.00 | 54 | 1002.2 |
| 20260505003049 | 76 | 187 | 1.7 | 5.2 | 0.00 | 0.00 | 0.00 | 54 | 1002.2 |
| 20260505002537 | 77 | 195 | 0.9 | 8.7 | 0.00 | 0.00 | 0.00 | 53 | 1002.2 |
| 20260505002038 | 77 | 240 | 2.6 | 11.3 | 0.00 | 0.00 | 0.00 | 53 | 1002.2 |
| 20260505001545 | 77 | 224 | 2.6 | 11.3 | 0.00 | 0.00 | 0.00 | 52 | 1002.2 |
| 20260505001038 | 77 | 186 | 1.7 | 7.0 | 0.00 | 0.00 | 0.00 | 53 | 1002.3 |
| 20260505000538 | 77 | 202 | 2.6 | 6.1 | 0.00 | 0.00 | 0.00 | 52 | 1002.3 |
| 20260505000057 | 77 | 250 | 1.7 | 7.8 | 0.00 | 0.00 | 0.00 | 52 | 1002.3 |
| 20260504235540 | 77 | 189 | 2.6 | 8.7 | 0.00 | 0.00 | 0.00 | 52 | 1002.2 |
| 20260504235038 | 77 | 195 | 2.6 | 10.4 | 0.00 | 0.00 | 0.00 | 52 | 1002.2 |
| 20260504234603 | 77 | 172 | 3.5 | 10.4 | 0.00 | 0.00 | 0.00 | 51 | 1002.2 |
| 20260504234037 | 78 | 190 | 3.5 | 9.6 | 0.00 | 0.00 | 0.00 | 51 | 1002.4 |
| 20260504233537 | 78 | 189 | 2.6 | 7.8 | 0.00 | 0.00 | 0.00 | 51 | 1002.4 |
| 20260504233049 | 78 | 200 | 1.7 | 8.7 | 0.00 | 0.00 | 0.00 | 51 | 1002.4 |
| 20260504232540 | 78 | 167 | 2.6 | 11.3 | 0.00 | 0.00 | 0.00 | 51 | 1002.4 |
| 20260504232041 | 78 | 215 | 4.3 | 11.3 | 0.00 | 0.00 | 0.00 | 49 | 1002.5 |
| 20260504231547 | 78 | 265 | 4.3 | 14.8 | 0.00 | 0.00 | 0.00 | 50 | 1002.5 |
| 20260504231037 | 78 | 165 | 5.2 | 14.8 | 0.00 | 0.00 | 0.00 | 49 | 1002.5 |
| 20260504230538 | 79 | 205 | 5.2 | 13.0 | 0.00 | 0.00 | 0.00 | 48 | 1002.6 |
| 20260504230047 | 79 | 214 | 3.5 | 11.3 | 0.00 | 0.00 | 0.00 | 50 | 1002.6 |
| 20260504225538 | 79 | 0 | 4.3 | 11.3 | 0.00 | 0.00 | 0.00 | 50 | 1002.6 |
| 20260504225038 | 79 | 259 | 3.5 | 11.3 | 0.00 | 0.00 | 0.00 | 49 | 1002.7 |
| 20260504224553 | 79 | 205 | 2.6 | 10.4 | 0.00 | 0.00 | 0.00 | 52 | 1002.6 |
| 20260504224041 | 78 | 201 | 4.3 | 16.5 | 0.00 | 0.00 | 0.00 | 51 | 1002.6 |
| 20260504223538 | 78 | 194 | 3.5 | 16.5 | 0.00 | 0.00 | 0.00 | 49 | 1002.7 |
| 20260504223046 | 78 | 212 | 5.2 | 14.8 | 0.00 | 0.00 | 0.00 | 50 | 1002.6 |
| 20260504222538 | 78 | 194 | 5.2 | 11.3 | 0.00 | 0.00 | 0.00 | 50 | 1002.7 |
| 20260504222038 | 79 | 182 | 2.6 | 9.6 | 0.00 | 0.00 | 0.00 | 51 | 1002.6 |
| 20260504221546 | 79 | 184 | 3.5 | 10.4 | 0.00 | 0.00 | 0.00 | 51 | 1002.6 |
| 20260504221038 | 79 | 208 | 4.3 | 13.9 | 0.00 | 0.00 | 0.00 | 49 | 1002.6 |
| 20260504220538 | 79 | 196 | 5.2 | 13.9 | 0.00 | 0.00 | 0.00 | 48 | 1002.6 |
| 20260504220100 | 79 | 169 | 5.2 | 17.4 | 0.00 | 0.00 | 0.00 | 47 | 1002.6 |
| 20260504215537 | 79 | 160 | 7.0 | 17.4 | 0.00 | 0.00 | 0.00 | 48 | 1002.7 |
| 20260504215041 | 79 | 191 | 7.8 | 16.5 | 0.00 | 0.00 | 0.00 | 46 | 1002.6 |
| 20260504214548 | 80 | 213 | 6.1 | 13.9 | 0.00 | 0.00 | 0.00 | 48 | 1002.6 |
| 20260504214039 | 80 | 215 | 7.0 | 13.9 | 0.00 | 0.00 | 0.00 | 46 | 1002.6 |
| 20260504213539 | 80 | 184 | 7.0 | 15.6 | 0.00 | 0.00 | 0.00 | 47 | 1002.6 |
| 20260504213107 | 81 | 207 | 6.1 | 15.6 | 0.00 | 0.00 | 0.00 | 46 | 1002.7 |
| 20260504212538 | 81 | 115 | 3.5 | 10.4 | 0.00 | 0.00 | 0.00 | 50 | 1002.7 |
| 20260504212041 | 80 | 294 | 4.3 | 12.2 | 0.00 | 0.00 | 0.00 | 48 | 1002.6 |
| 20260504211551 | 80 | 232 | 3.5 | 12.2 | 0.00 | 0.00 | 0.00 | 50 | 1002.7 |
| 20260504211039 | 80 | 184 | 5.2 | 14.8 | 0.00 | 0.00 | 0.00 | 50 | 1002.7 |
| 20260504210537 | 80 | 200 | 3.5 | 14.8 | 0.00 | 0.00 | 0.00 | 50 | 1002.7 |
| 20260504210047 | 80 | 251 | 4.3 | 15.6 | 0.00 | 0.00 | 0.00 | 51 | 1002.7 |
| 20260504205539 | 80 | 254 | 7.0 | 15.6 | 0.00 | 0.00 | 0.00 | 49 | 1002.7 |
| 20260504205039 | 79 | 175 | 2.6 | 17.4 | 0.00 | 0.00 | 0.00 | 52 | 1002.7 |
| 20260504204555 | 79 | 258 | 7.0 | 19.1 | 0.00 | 0.00 | 0.00 | 50 | 1002.7 |
| 20260504204038 | 78 | 235 | 7.8 | 19.1 | 0.00 | 0.00 | 0.00 | 51 | 1002.8 |
| 20260504203538 | 78 | 144 | 6.1 | 13.9 | 0.00 | 0.00 | 0.00 | 53 | 1002.8 |
| 20260504203049 | 77 | 173 | 4.3 | 11.3 | 0.00 | 0.00 | 0.00 | 58 | 1002.9 |
| 20260504202538 | 77 | 133 | 3.5 | 8.7 | 0.00 | 0.00 | 0.00 | 57 | 1002.9 |
| 20260504202037 | 77 | 171 | 2.6 | 7.8 | 0.00 | 0.00 | 0.00 | 61 | 1003.2 |
| 20260504201547 | 76 | 233 | 2.6 | 7.8 | 0.00 | 0.00 | 0.00 | 59 | 1003.1 |
| 20260504201038 | 76 | 241 | 2.6 | 8.7 | 0.00 | 0.00 | 0.00 | 59 | 1003.3 |
| 20260504200539 | 76 | 232 | 4.3 | 12.2 | 0.00 | 0.00 | 0.00 | 55 | 1003.3 |
| 20260504200047 | 77 | 160 | 3.5 | 12.2 | 0.00 | 0.00 | 0.00 | 56 | 1003.4 |
| 20260504195540 | 77 | 225 | 3.5 | 13.0 | 0.00 | 0.00 | 0.00 | 57 | 1003.4 |
| 20260504195040 | 77 | 162 | 4.3 | 13.0 | 0.00 | 0.00 | 0.00 | 55 | 1003.4 |
| 20260504194557 | 77 | 228 | 5.2 | 10.4 | 0.00 | 0.00 | 0.00 | 56 | 1003.9 |
| 20260504194038 | 76 | 171 | 2.6 | 11.3 | 0.00 | 0.00 | 0.00 | 57 | 1004.1 |
| 20260504193540 | 76 | 124 | 4.3 | 11.3 | 0.00 | 0.00 | 0.00 | 55 | 1003.9 |
| 20260504193106 | 76 | 229 | 3.5 | 14.8 | 0.00 | 0.00 | 0.00 | 58 | 1004.3 |
| 20260504192538 | 76 | 126 | 3.5 | 14.8 | 0.00 | 0.00 | 0.00 | 56 | 1004.4 |
| 20260504192042 | 76 | 211 | 4.3 | 9.6 | 0.00 | 0.00 | 0.00 | 56 | 1004.5 |
| 20260504191553 | 75 | 174 | 3.5 | 10.4 | 0.00 | 0.00 | 0.00 | 56 | 1004.6 |
| 20260504191038 | 75 | 225 | 2.6 | 11.3 | 0.00 | 0.00 | 0.00 | 56 | 1004.6 |
| 20260504190538 | 75 | 175 | 5.2 | 11.3 | 0.00 | 0.00 | 0.00 | 56 | 1004.7 |
| 20260504190054 | 75 | 189 | 4.3 | 8.7 | 0.00 | 0.00 | 0.00 | 59 | 1004.7 |
| 20260504185536 | 74 | 128 | 4.3 | 7.8 | 0.00 | 0.00 | 0.00 | 59 | 1004.7 |
| 20260504185039 | 73 | 176 | 2.6 | 7.8 | 0.00 | 0.00 | 0.00 | 60 | 1004.8 |
| 20260504184546 | 73 | 122 | 2.6 | 7.0 | 0.00 | 0.00 | 0.00 | 62 | 1004.7 |
| 20260504184044 | 73 | 158 | 1.7 | 8.7 | 0.00 | 0.00 | 0.00 | 60 | 1004.8 |
| 20260504183541 | 73 | 130 | 2.6 | 8.7 | 0.00 | 0.00 | 0.00 | 62 | 1004.6 |
| 20260504183058 | 73 | 188 | 2.6 | 7.8 | 0.00 | 0.00 | 0.00 | 58 | 1004.3 |
| 20260504182540 | 73 | 182 | 3.5 | 8.7 | 0.00 | 0.00 | 0.00 | 58 | 1004.6 |
| 20260504182040 | 73 | 145 | 3.5 | 8.7 | 0.00 | 0.00 | 0.00 | 59 | 1004.7 |
| 20260504181554 | 73 | 138 | 2.6 | 13.9 | 0.00 | 0.00 | 0.00 | 60 | 1004.8 |
| 20260504181041 | 73 | 171 | 5.2 | 13.9 | 0.00 | 0.00 | 0.00 | 58 | 1005.0 |
| 20260504180541 | 72 | 231 | 4.3 | 13.9 | 0.00 | 0.00 | 0.00 | 64 | 1005.2 |
| 20260504180131 | 72 | 243 | 2.6 | 13.9 | 0.00 | 0.00 | 0.00 | 66 | 1005.2 |
| 20260504175544 | 71 | 130 | 3.5 | 11.3 | 0.00 | 0.00 | 0.00 | 65 | 1005.2 |
| 20260504175040 | 70 | 180 | 1.7 | 5.2 | 0.00 | 0.00 | 0.00 | 70 | 1005.1 |
| 20260504174550 | 69 | 131 | 1.7 | 5.2 | 0.00 | 0.00 | 0.00 | 69 | 1005.3 |
| 20260504174040 | 68 | 231 | 1.7 | 4.3 | 0.00 | 0.00 | 0.00 | 72 | 1005.5 |
| 20260504173539 | 67 | 135 | 1.7 | 4.3 | 0.00 | 0.00 | 0.00 | 71 | 1005.5 |
| 20260504173050 | 66 | 0 | 0.9 | 7.0 | 0.00 | 0.00 | 0.00 | 70 | 1005.4 |
| 20260504172540 | 66 | 231 | 1.7 | 7.8 | 0.00 | 0.00 | 0.00 | 69 | 1005.5 |
| 20260504172040 | 65 | 246 | 1.7 | 7.8 | 0.00 | 0.00 | 0.00 | 69 | 1005.6 |
| 20260504171558 | 65 | 192 | 1.7 | 10.4 | 0.00 | 0.00 | 0.00 | 68 | 1005.1 |
| 20260504171041 | 65 | 164 | 3.5 | 10.4 | 0.00 | 0.00 | 0.00 | 68 | 1005.4 |
| 20260504170540 | 65 | 196 | 2.6 | 12.2 | 0.00 | 0.00 | 0.00 | 68 | 1005.5 |
| 20260504151039 | 64 | 167 | 1.7 | 7.0 | 0.00 | 0.00 | 0.00 | 74 | 1006.5 |
| 20260504150541 | 63 | 192 | 1.7 | 7.0 | 0.00 | 0.00 | 0.00 | 73 | 1006.6 |
| 20260504141039 | 63 | 207 | 3.5 | 7.8 | 0.00 | 0.00 | 0.00 | 70 | 1006.4 |
| 20260504140539 | 64 | 150 | 1.7 | 7.0 | 0.00 | 0.00 | 0.00 | 69 | 1006.9 |
| 20260504130540 | 63 | 200 | 2.6 | 8.7 | 0.00 | 0.00 | 0.00 | 73 | 1007.4 |
| 20260504120109 | 58 | 184 | 3.5 | 12.2 | 0.00 | 0.00 | 0.00 | 76 | 1007.6 |
| 20260504110540 | 56 | 182 | 1.7 | 5.2 | 0.00 | 0.00 | 0.00 | 81 | 1007.6 |
| 20260504100539 | 56 | 209 | 0.9 | 3.5 | 0.00 | 0.00 | 0.00 | 79 | 1008.5 |
| 20260504100114 | 56 | 210 | 0.9 | 2.6 | 0.00 | 0.00 | 0.00 | 79 | 1008.4 |
| 20260504081545 | 55 | 0 | 0.0 | 0.0 | 0.00 | 0.00 | 0.00 | 83 | 1007.9 |
| 20260504081039 | 55 | 0 | 0.0 | 0.0 | 0.00 | 0.00 | 0.00 | 83 | 1008.0 |
| 20260504080539 | 55 | 0 | 0.0 | 0.0 | 0.00 | 0.00 | 0.00 | 83 | 1008.0 |